sensor_id;sensor_type;location;lat;lon;timestamp;pressure;altitude;pressure_sealevel;temperature;humidity
50702;BME280;36670;50.094;8.496;2022-08-21T00:00:41;100395.31;;;20.55;49.31
50702;BME280;36670;50.094;8.496;2022-08-21T00:03:09;100386.91;;;20.55;49.56
50702;BME280;36670;50.094;8.496;2022-08-21T00:05:41;100384.09;;;20.55;49.05
50702;BME280;36670;50.094;8.496;2022-08-21T00:08:07;100384.53;;;20.49;50.04
50702;BME280;36670;50.094;8.496;2022-08-21T00:10:32;100374.94;;;20.41;50.13
50702;BME280;36670;50.094;8.496;2022-08-21T00:13:00;100370.88;;;20.33;50.48
50702;BME280;36670;50.094;8.496;2022-08-21T00:15:28;100361.22;;;20.17;50.92
50702;BME280;36670;50.094;8.496;2022-08-21T00:17:55;100366.28;;;20.15;51.03
50702;BME280;36670;50.094;8.496;2022-08-21T00:20:21;100365.16;;;20.16;51.12
50702;BME280;36670;50.094;8.496;2022-08-21T00:22:47;100365.25;;;20.10;50.81
50702;BME280;36670;50.094;8.496;2022-08-21T00:25:14;100365.19;;;20.02;51.92
50702;BME280;36670;50.094;8.496;2022-08-21T00:27:41;100363.09;;;20.07;51.29
50702;BME280;36670;50.094;8.496;2022-08-21T00:30:13;100366.06;;;20.11;51.07
50702;BME280;36670;50.094;8.496;2022-08-21T00:32:39;100354.56;;;20.12;50.44
50702;BME280;36670;50.094;8.496;2022-08-21T00:35:12;100370.94;;;20.19;50.99
50702;BME280;36670;50.094;8.496;2022-08-21T00:37:39;100368.44;;;20.18;51.04
50702;BME280;36670;50.094;8.496;2022-08-21T00:40:07;100366.91;;;20.11;51.05
50702;BME280;36670;50.094;8.496;2022-08-21T00:42:33;100373.91;;;20.00;50.91
50702;BME280;36670;50.094;8.496;2022-08-21T00:44:58;100371.53;;;19.93;51.23
50702;BME280;36670;50.094;8.496;2022-08-21T00:47:24;100371.13;;;19.86;51.34
50702;BME280;36670;50.094;8.496;2022-08-21T00:49:49;100370.41;;;19.81;51.47
50702;BME280;36670;50.094;8.496;2022-08-21T00:52:17;100377.66;;;19.82;51.75
50702;BME280;36670;50.094;8.496;2022-08-21T00:54:45;100375.38;;;19.84;51.44
50702;BME280;36670;50.094;8.496;2022-08-21T00:57:22;100375.28;;;19.89;51.73
50702;BME280;36670;50.094;8.496;2022-08-21T00:59:51;100362.50;;;19.97;51.54
50702;BME280;36670;50.094;8.496;2022-08-21T01:02:19;100369.53;;;19.94;51.74
50702;BME280;36670;50.094;8.496;2022-08-21T01:04:45;100372.34;;;19.94;51.35
50702;BME280;36670;50.094;8.496;2022-08-21T01:07:11;100368.41;;;19.95;51.71
50702;BME280;36670;50.094;8.496;2022-08-21T01:09:38;100369.53;;;19.94;51.78
50702;BME280;36670;50.094;8.496;2022-08-21T01:12:04;100369.53;;;19.94;51.26
50702;BME280;36670;50.094;8.496;2022-08-21T01:14:30;100371.53;;;19.93;51.79
50702;BME280;36670;50.094;8.496;2022-08-21T01:16:56;100368.50;;;19.90;51.74
50702;BME280;36670;50.094;8.496;2022-08-21T01:19:23;100369.97;;;19.87;51.94
50702;BME280;36670;50.094;8.496;2022-08-21T01:21:49;100366.22;;;19.78;51.93
50702;BME280;36670;50.094;8.496;2022-08-21T01:24:15;100371.63;;;19.74;52.07
50702;BME280;36670;50.094;8.496;2022-08-21T01:26:42;100377.94;;;19.66;52.38
50702;BME280;36670;50.094;8.496;2022-08-21T01:29:31;100371.31;;;19.62;52.51
50702;BME280;36670;50.094;8.496;2022-08-21T01:32:02;100379.09;;;19.65;52.55
50702;BME280;36670;50.094;8.496;2022-08-21T01:34:28;100378.59;;;19.63;52.55
50702;BME280;36670;50.094;8.496;2022-08-21T01:36:53;100376.91;;;19.62;52.46
50702;BME280;36670;50.094;8.496;2022-08-21T01:39:19;100377.84;;;19.57;52.34
50702;BME280;36670;50.094;8.496;2022-08-21T01:41:44;100370.59;;;19.56;52.58
50702;BME280;36670;50.094;8.496;2022-08-21T01:44:10;100372.56;;;19.56;52.93
50702;BME280;36670;50.094;8.496;2022-08-21T01:46:36;100374.03;;;19.53;52.68
50702;BME280;36670;50.094;8.496;2022-08-21T01:49:02;100367.16;;;19.45;52.55
50702;BME280;36670;50.094;8.496;2022-08-21T01:51:28;100371.63;;;19.47;53.48
50702;BME280;36670;50.094;8.496;2022-08-21T01:53:53;100367.78;;;19.42;53.48
50702;BME280;36670;50.094;8.496;2022-08-21T01:56:19;100367.78;;;19.42;53.73
50702;BME280;36670;50.094;8.496;2022-08-21T01:58:46;100357.94;;;19.45;53.35
50702;BME280;36670;50.094;8.496;2022-08-21T02:01:12;100361.56;;;19.45;53.27
50702;BME280;36670;50.094;8.496;2022-08-21T02:03:39;100359.09;;;19.44;54.00
50702;BME280;36670;50.094;8.496;2022-08-21T02:06:05;100355.38;;;19.49;53.84
50702;BME280;36670;50.094;8.496;2022-08-21T02:08:32;100356.59;;;19.28;54.42
50702;BME280;36670;50.094;8.496;2022-08-21T02:10:58;100357.84;;;19.22;54.57
50702;BME280;36670;50.094;8.496;2022-08-21T02:13:24;100352.56;;;19.21;54.37
50702;BME280;36670;50.094;8.496;2022-08-21T02:15:49;100356.56;;;19.15;54.40
50702;BME280;36670;50.094;8.496;2022-08-21T02:18:15;100349.44;;;19.08;54.47
50702;BME280;36670;50.094;8.496;2022-08-21T02:20:45;100350.25;;;19.09;54.75
50702;BME280;36670;50.094;8.496;2022-08-21T02:23:11;100352.72;;;18.97;55.09
50702;BME280;36670;50.094;8.496;2022-08-21T02:25:37;100351.19;;;19.04;54.59
50702;BME280;36670;50.094;8.496;2022-08-21T02:28:06;100355.34;;;19.07;54.93
50702;BME280;36670;50.094;8.496;2022-08-21T02:30:35;100352.44;;;19.12;54.56
50702;BME280;36670;50.094;8.496;2022-08-21T02:33:03;100351.91;;;19.10;54.54
50702;BME280;36670;50.094;8.496;2022-08-21T02:35:29;100349.00;;;19.01;55.06
50702;BME280;36670;50.094;8.496;2022-08-21T02:37:58;100343.91;;;19.03;55.62
50702;BME280;36670;50.094;8.496;2022-08-21T02:40:27;100345.06;;;19.02;55.52
50702;BME280;36670;50.094;8.496;2022-08-21T02:42:53;100340.50;;;19.06;55.62
50702;BME280;36670;50.094;8.496;2022-08-21T02:45:19;100344.22;;;19.02;55.58
50702;BME280;36670;50.094;8.496;2022-08-21T02:47:53;100340.09;;;18.99;55.64
50702;BME280;36670;50.094;8.496;2022-08-21T02:50:38;100340.59;;;18.87;55.81
50702;BME280;36670;50.094;8.496;2022-08-21T02:53:05;100342.47;;;18.92;55.89
50702;BME280;36670;50.094;8.496;2022-08-21T02:55:33;100343.28;;;18.92;55.62
50702;BME280;36670;50.094;8.496;2022-08-21T02:57:59;100347.75;;;18.93;55.64
50702;BME280;36670;50.094;8.496;2022-08-21T03:00:27;100346.31;;;18.96;56.41
50702;BME280;36670;50.094;8.496;2022-08-21T03:02:53;100344.84;;;18.99;56.29
50702;BME280;36670;50.094;8.496;2022-08-21T03:05:22;100338.88;;;19.05;56.21
50702;BME280;36670;50.094;8.496;2022-08-21T03:07:49;100343.53;;;19.10;56.13
50702;BME280;36670;50.094;8.496;2022-08-21T03:10:16;100340.41;;;19.12;56.46
50702;BME280;36670;50.094;8.496;2022-08-21T03:12:41;100337.22;;;19.18;56.16
50702;BME280;36670;50.094;8.496;2022-08-21T03:15:11;100332.97;;;19.21;56.08
50702;BME280;36670;50.094;8.496;2022-08-21T03:17:37;100334.00;;;19.25;56.14
50702;BME280;36670;50.094;8.496;2022-08-21T03:20:04;100334.31;;;19.23;55.71
50702;BME280;36670;50.094;8.496;2022-08-21T03:22:33;100339.47;;;19.16;55.99
50702;BME280;36670;50.094;8.496;2022-08-21T03:24:58;100341.03;;;19.08;55.53
50702;BME280;36670;50.094;8.496;2022-08-21T03:27:25;100342.06;;;18.99;55.62
50702;BME280;36670;50.094;8.496;2022-08-21T03:29:52;100345.25;;;18.92;55.85
50702;BME280;36670;50.094;8.496;2022-08-21T03:32:17;100343.09;;;18.89;56.13
50702;BME280;36670;50.094;8.496;2022-08-21T03:34:43;100343.63;;;18.86;55.60
50702;BME280;36670;50.094;8.496;2022-08-21T03:37:08;100343.13;;;18.84;55.76
50702;BME280;36670;50.094;8.496;2022-08-21T03:39:35;100347.91;;;18.83;55.78
50702;BME280;36670;50.094;8.496;2022-08-21T03:42:00;100347.06;;;18.83;55.55
50702;BME280;36670;50.094;8.496;2022-08-21T03:44:26;100344.81;;;18.85;56.00
50702;BME280;36670;50.094;8.496;2022-08-21T03:46:56;100339.81;;;18.82;56.04
50702;BME280;36670;50.094;8.496;2022-08-21T03:49:21;100354.59;;;18.87;55.72
50702;BME280;36670;50.094;8.496;2022-08-21T03:51:47;100348.69;;;18.89;56.19
50702;BME280;36670;50.094;8.496;2022-08-21T03:54:13;100351.47;;;18.89;56.08
50702;BME280;36670;50.094;8.496;2022-08-21T03:56:38;100347.50;;;18.90;56.33
50702;BME280;36670;50.094;8.496;2022-08-21T03:59:04;100351.97;;;18.91;56.06
50702;BME280;36670;50.094;8.496;2022-08-21T04:01:30;100355.63;;;18.91;55.98
50702;BME280;36670;50.094;8.496;2022-08-21T04:03:56;100356.22;;;18.88;56.00
50702;BME280;36670;50.094;8.496;2022-08-21T04:06:21;100361.28;;;18.86;56.03
50702;BME280;36670;50.094;8.496;2022-08-21T04:08:46;100359.25;;;18.92;56.64
50702;BME280;36670;50.094;8.496;2022-08-21T04:11:12;100359.16;;;18.97;56.65
50702;BME280;36670;50.094;8.496;2022-08-21T04:13:39;100362.38;;;19.04;56.20
50702;BME280;36670;50.094;8.496;2022-08-21T04:16:06;100363.00;;;19.01;55.78
50702;BME280;36670;50.094;8.496;2022-08-21T04:18:31;100368.06;;;18.99;56.20
50702;BME280;36670;50.094;8.496;2022-08-21T04:20:57;100371.41;;;19.01;56.09
50702;BME280;36670;50.094;8.496;2022-08-21T04:23:26;100378.19;;;18.95;56.20
50702;BME280;36670;50.094;8.496;2022-08-21T04:25:54;100377.00;;;18.82;56.32
50702;BME280;36670;50.094;8.496;2022-08-21T04:28:21;100374.69;;;18.70;56.57
50702;BME280;36670;50.094;8.496;2022-08-21T04:30:46;100374.16;;;18.68;56.23
50702;BME280;36670;50.094;8.496;2022-08-21T04:33:12;100376.44;;;18.66;56.17
50702;BME280;36670;50.094;8.496;2022-08-21T04:35:37;100382.94;;;18.62;56.06
50702;BME280;36670;50.094;8.496;2022-08-21T04:38:03;100385.97;;;18.65;56.22
50702;BME280;36670;50.094;8.496;2022-08-21T04:40:28;100386.78;;;18.66;55.87
50702;BME280;36670;50.094;8.496;2022-08-21T04:42:56;100391.88;;;18.64;56.40
50702;BME280;36670;50.094;8.496;2022-08-21T04:45:35;100388.16;;;18.68;56.57
50702;BME280;36670;50.094;8.496;2022-08-21T04:48:05;100399.47;;;18.77;56.53
50702;BME280;36670;50.094;8.496;2022-08-21T04:50:37;100395.78;;;18.82;56.41
50702;BME280;36670;50.094;8.496;2022-08-21T04:53:07;100398.09;;;18.93;56.09
50702;BME280;36670;50.094;8.496;2022-08-21T04:55:33;100394.06;;;19.00;56.08
50702;BME280;36670;50.094;8.496;2022-08-21T04:58:00;100397.16;;;18.98;56.34
50702;BME280;36670;50.094;8.496;2022-08-21T05:00:25;100402.38;;;19.05;56.46
50702;BME280;36670;50.094;8.496;2022-08-21T05:02:53;100411.72;;;19.14;55.85
50702;BME280;36670;50.094;8.496;2022-08-21T05:05:22;100413.59;;;19.19;56.29
50702;BME280;36670;50.094;8.496;2022-08-21T05:07:48;100410.41;;;19.25;56.86
50702;BME280;36670;50.094;8.496;2022-08-21T05:10:15;100408.13;;;19.41;56.21
50702;BME280;36670;50.094;8.496;2022-08-21T05:12:41;100409.16;;;19.59;56.43
50702;BME280;36670;50.094;8.496;2022-08-21T05:15:08;100412.50;;;19.75;56.27
50702;BME280;36670;50.094;8.496;2022-08-21T05:17:34;100424.97;;;19.83;55.78
50702;BME280;36670;50.094;8.496;2022-08-21T05:19:59;100416.88;;;19.82;55.94
50702;BME280;36670;50.094;8.496;2022-08-21T05:22:25;100415.66;;;19.88;55.30
50702;BME280;36670;50.094;8.496;2022-08-21T05:24:51;100421.66;;;19.81;55.43
50702;BME280;36670;50.094;8.496;2022-08-21T05:27:17;100412.00;;;19.87;55.72
50702;BME280;36670;50.094;8.496;2022-08-21T05:29:42;100416.03;;;19.95;55.42
50702;BME280;36670;50.094;8.496;2022-08-21T05:32:11;100415.31;;;20.03;55.41
50702;BME280;36670;50.094;8.496;2022-08-21T05:34:37;100418.09;;;20.17;55.79
50702;BME280;36670;50.094;8.496;2022-08-21T05:37:03;100413.88;;;20.42;54.87
50702;BME280;36670;50.094;8.496;2022-08-21T05:39:29;100420.94;;;20.99;53.86
50702;BME280;36670;50.094;8.496;2022-08-21T05:41:54;100419.16;;;22.32;51.56
50702;BME280;36670;50.094;8.496;2022-08-21T05:44:20;100412.00;;;23.61;49.15
50702;BME280;36670;50.094;8.496;2022-08-21T05:46:45;100405.59;;;24.63;47.10
50702;BME280;36670;50.094;8.496;2022-08-21T05:49:10;100411.16;;;25.51;44.74
50702;BME280;36670;50.094;8.496;2022-08-21T05:51:36;100413.31;;;26.16;43.87
50702;BME280;36670;50.094;8.496;2022-08-21T05:54:04;100407.63;;;26.69;42.64
50702;BME280;36670;50.094;8.496;2022-08-21T05:56:29;100406.06;;;27.28;41.43
50702;BME280;36670;50.094;8.496;2022-08-21T05:58:54;100410.84;;;27.72;40.41
50702;BME280;36670;50.094;8.496;2022-08-21T06:01:20;100412.16;;;28.26;38.83
50702;BME280;36670;50.094;8.496;2022-08-21T06:03:45;100415.91;;;28.50;38.66
50702;BME280;36670;50.094;8.496;2022-08-21T06:06:11;100417.81;;;28.61;37.43
50702;BME280;36670;50.094;8.496;2022-08-21T06:08:36;100414.69;;;28.67;37.01
50702;BME280;36670;50.094;8.496;2022-08-21T06:11:03;100411.53;;;28.91;37.37
50702;BME280;36670;50.094;8.496;2022-08-21T06:13:29;100416.53;;;28.98;35.68
50702;BME280;36670;50.094;8.496;2022-08-21T06:16:09;100423.09;;;27.76;37.92
50702;BME280;36670;50.094;8.496;2022-08-21T06:18:35;100416.22;;;27.93;37.94
50702;BME280;36670;50.094;8.496;2022-08-21T06:21:01;100413.16;;;28.53;38.24
50702;BME280;36670;50.094;8.496;2022-08-21T06:23:27;100412.44;;;28.76;37.81
50702;BME280;36670;50.094;8.496;2022-08-21T06:25:52;100416.06;;;28.57;38.58
50702;BME280;36670;50.094;8.496;2022-08-21T06:28:18;100418.38;;;28.51;37.99
50702;BME280;36670;50.094;8.496;2022-08-21T06:30:43;100404.41;;;28.07;39.03
50702;BME280;36670;50.094;8.496;2022-08-21T06:33:09;100412.47;;;28.40;38.48
50702;BME280;36670;50.094;8.496;2022-08-21T06:35:34;100410.44;;;29.19;37.60
50702;BME280;36670;50.094;8.496;2022-08-21T06:38:00;100412.06;;;28.77;37.89
50702;BME280;36670;50.094;8.496;2022-08-21T06:40:27;100408.38;;;28.57;37.79
50702;BME280;36670;50.094;8.496;2022-08-21T06:42:53;100415.41;;;27.76;38.06
50702;BME280;36670;50.094;8.496;2022-08-21T06:45:18;100423.81;;;26.15;40.24
50702;BME280;36670;50.094;8.496;2022-08-21T06:47:44;100419.03;;;25.33;42.61
50702;BME280;36670;50.094;8.496;2022-08-21T06:50:09;100421.13;;;24.69;43.79
50702;BME280;36670;50.094;8.496;2022-08-21T06:52:35;100411.13;;;24.08;44.60
50702;BME280;36670;50.094;8.496;2022-08-21T06:55:01;100421.06;;;23.76;46.49
50702;BME280;36670;50.094;8.496;2022-08-21T06:57:26;100419.44;;;23.66;47.06
50702;BME280;36670;50.094;8.496;2022-08-21T06:59:51;100421.00;;;23.55;46.81
50702;BME280;36670;50.094;8.496;2022-08-21T07:02:17;100418.50;;;23.53;46.76
50702;BME280;36670;50.094;8.496;2022-08-21T07:04:43;100423.28;;;23.61;47.40
50702;BME280;36670;50.094;8.496;2022-08-21T07:07:08;100417.38;;;23.84;47.41
50702;BME280;36670;50.094;8.496;2022-08-21T07:09:33;100423.06;;;23.75;46.71
50702;BME280;36670;50.094;8.496;2022-08-21T07:11:59;100424.44;;;23.60;47.31
50702;BME280;36670;50.094;8.496;2022-08-21T07:14:25;100418.97;;;23.16;48.21
50702;BME280;36670;50.094;8.496;2022-08-21T07:16:51;100427.06;;;23.27;48.57
50702;BME280;36670;50.094;8.496;2022-08-21T07:19:17;100422.19;;;23.83;47.55
50702;BME280;36670;50.094;8.496;2022-08-21T07:21:42;100425.06;;;24.34;46.06
50702;BME280;36670;50.094;8.496;2022-08-21T07:24:08;100423.25;;;24.30;46.11
50702;BME280;36670;50.094;8.496;2022-08-21T07:26:34;100426.06;;;24.09;46.80
50702;BME280;36670;50.094;8.496;2022-08-21T07:28:59;100416.78;;;24.50;46.78
50702;BME280;36670;50.094;8.496;2022-08-21T07:31:25;100415.31;;;25.53;45.63
50702;BME280;36670;50.094;8.496;2022-08-21T07:33:51;100412.72;;;26.22;44.14
50702;BME280;36670;50.094;8.496;2022-08-21T07:36:17;100417.28;;;26.39;43.75
50702;BME280;36670;50.094;8.496;2022-08-21T07:38:43;100408.19;;;26.46;43.24
50702;BME280;36670;50.094;8.496;2022-08-21T07:41:16;100403.66;;;26.57;42.93
50702;BME280;36670;50.094;8.496;2022-08-21T07:43:43;100407.28;;;26.70;42.89
50702;BME280;36670;50.094;8.496;2022-08-21T07:46:08;100398.91;;;26.74;43.00
50702;BME280;36670;50.094;8.496;2022-08-21T07:48:34;100402.88;;;26.85;42.80
50702;BME280;36670;50.094;8.496;2022-08-21T07:51:02;100400.69;;;25.88;42.54
50702;BME280;36670;50.094;8.496;2022-08-21T07:53:28;100406.25;;;26.10;42.56
50702;BME280;36670;50.094;8.496;2022-08-21T07:55:57;100400.50;;;26.47;43.60
50702;BME280;36670;50.094;8.496;2022-08-21T07:58:22;100398.19;;;26.77;42.91
50702;BME280;36670;50.094;8.496;2022-08-21T08:00:48;100395.75;;;26.91;42.89
50702;BME280;36670;50.094;8.496;2022-08-21T08:03:13;100388.59;;;27.10;42.73
50702;BME280;36670;50.094;8.496;2022-08-21T08:05:39;100384.81;;;27.06;41.83
50702;BME280;36670;50.094;8.496;2022-08-21T08:08:04;100389.63;;;26.89;42.53
50702;BME280;36670;50.094;8.496;2022-08-21T08:10:30;100389.06;;;26.84;41.44
50702;BME280;36670;50.094;8.496;2022-08-21T08:12:55;100385.19;;;26.76;42.24
50702;BME280;36670;50.094;8.496;2022-08-21T08:15:24;100380.16;;;27.14;42.04
50702;BME280;36670;50.094;8.496;2022-08-21T08:17:50;100389.50;;;27.30;42.05
50702;BME280;36670;50.094;8.496;2022-08-21T08:20:16;100386.66;;;27.14;41.52
50702;BME280;36670;50.094;8.496;2022-08-21T08:22:43;100381.91;;;27.18;41.20
50702;BME280;36670;50.094;8.496;2022-08-21T08:25:10;100388.53;;;27.38;42.04
50702;BME280;36670;50.094;8.496;2022-08-21T08:27:36;100386.97;;;27.57;41.76
50702;BME280;36670;50.094;8.496;2022-08-21T08:30:03;100374.25;;;27.83;41.90
50702;BME280;36670;50.094;8.496;2022-08-21T08:32:29;100366.72;;;28.06;40.42
50702;BME280;36670;50.094;8.496;2022-08-21T08:34:54;100365.91;;;28.25;40.18
50702;BME280;36670;50.094;8.496;2022-08-21T08:37:20;100369.72;;;28.33;40.41
50702;BME280;36670;50.094;8.496;2022-08-21T08:39:46;100363.44;;;28.24;40.75
50702;BME280;36670;50.094;8.496;2022-08-21T08:42:16;100357.41;;;28.45;40.26
50702;BME280;36670;50.094;8.496;2022-08-21T08:44:44;100361.09;;;28.65;39.97
50702;BME280;36670;50.094;8.496;2022-08-21T08:47:16;100356.22;;;28.66;39.81
50702;BME280;36670;50.094;8.496;2022-08-21T08:50:07;100345.22;;;28.64;39.74
50702;BME280;36670;50.094;8.496;2022-08-21T08:52:46;100349.47;;;28.54;39.79
50702;BME280;36670;50.094;8.496;2022-08-21T08:55:34;100343.88;;;28.58;40.08
50702;BME280;36670;50.094;8.496;2022-08-21T08:58:01;100346.81;;;28.61;39.60
50702;BME280;36670;50.094;8.496;2022-08-21T09:00:28;100348.19;;;28.52;39.13
50702;BME280;36670;50.094;8.496;2022-08-21T09:02:55;100341.84;;;28.58;37.73
50702;BME280;36670;50.094;8.496;2022-08-21T09:05:50;100337.97;;;28.67;38.82
50702;BME280;36670;50.094;8.496;2022-08-21T09:11:27;100333.78;;;29.03;38.07
50702;BME280;36670;50.094;8.496;2022-08-21T09:19:03;100328.50;;;29.02;37.06
50702;BME280;36670;50.094;8.496;2022-08-21T09:21:39;100327.19;;;29.19;35.29
50702;BME280;36670;50.094;8.496;2022-08-21T09:24:18;100327.63;;;29.44;35.37
50702;BME280;36670;50.094;8.496;2022-08-21T09:26:59;100329.13;;;28.91;34.65
50702;BME280;36670;50.094;8.496;2022-08-21T09:29:30;100334.25;;;29.05;35.75
50702;BME280;36670;50.094;8.496;2022-08-21T09:31:57;100330.31;;;28.90;35.79
50702;BME280;36670;50.094;8.496;2022-08-21T09:34:28;100333.41;;;28.82;36.14
50702;BME280;36670;50.094;8.496;2022-08-21T09:36:54;100335.91;;;28.64;36.70
50702;BME280;36670;50.094;8.496;2022-08-21T09:39:29;100336.59;;;29.00;37.35
50702;BME280;36670;50.094;8.496;2022-08-21T09:42:01;100325.41;;;29.57;36.62
50702;BME280;36670;50.094;8.496;2022-08-21T09:44:29;100332.53;;;29.70;35.86
50702;BME280;36670;50.094;8.496;2022-08-21T09:46:55;100331.09;;;29.84;34.50
50702;BME280;36670;50.094;8.496;2022-08-21T09:51:54;100332.22;;;29.06;35.11
50702;BME280;36670;50.094;8.496;2022-08-21T09:54:26;100323.16;;;28.18;35.98
50702;BME280;36670;50.094;8.496;2022-08-21T09:57:14;100319.88;;;28.75;35.75
50702;BME280;36670;50.094;8.496;2022-08-21T10:00:20;100313.72;;;29.39;35.66
50702;BME280;36670;50.094;8.496;2022-08-21T10:02:48;100309.88;;;29.51;35.78
50702;BME280;36670;50.094;8.496;2022-08-21T10:05:21;100308.03;;;29.39;35.28
50702;BME280;36670;50.094;8.496;2022-08-21T10:07:48;100308.38;;;29.10;35.59
50702;BME280;36670;50.094;8.496;2022-08-21T10:19:11;100295.13;;;29.45;35.34
50702;BME280;36670;50.094;8.496;2022-08-21T10:22:14;100289.56;;;29.79;35.00
50702;BME280;36670;50.094;8.496;2022-08-21T10:27:40;100293.72;;;29.85;34.20
50702;BME280;36670;50.094;8.496;2022-08-21T10:30:25;100285.91;;;30.09;33.74
50702;BME280;36670;50.094;8.496;2022-08-21T10:36:13;100287.09;;;30.04;33.71
50702;BME280;36670;50.094;8.496;2022-08-21T10:39:03;100286.84;;;30.17;33.21
50702;BME280;36670;50.094;8.496;2022-08-21T10:41:47;100288.59;;;29.94;32.49
50702;BME280;36670;50.094;8.496;2022-08-21T10:46:54;100281.41;;;30.04;32.51
50702;BME280;36670;50.094;8.496;2022-08-21T10:52:07;100282.19;;;30.35;31.81
50702;BME280;36670;50.094;8.496;2022-08-21T10:57:38;100271.94;;;30.61;30.94
50702;BME280;36670;50.094;8.496;2022-08-21T11:00:08;100260.72;;;30.83;30.32
50702;BME280;36670;50.094;8.496;2022-08-21T11:02:44;100251.72;;;30.77;30.86
50702;BME280;36670;50.094;8.496;2022-08-21T11:05:30;100251.97;;;30.61;31.02
50702;BME280;36670;50.094;8.496;2022-08-21T11:08:03;100248.56;;;30.86;31.11
50702;BME280;36670;50.094;8.496;2022-08-21T11:10:43;100241.28;;;31.44;29.86
50702;BME280;36670;50.094;8.496;2022-08-21T11:13:45;100244.66;;;31.05;29.48
50702;BME280;36670;50.094;8.496;2022-08-21T11:16:36;100235.97;;;30.90;30.26
50702;BME280;36670;50.094;8.496;2022-08-21T11:21:42;100237.00;;;31.16;29.78
50702;BME280;36670;50.094;8.496;2022-08-21T11:27:14;100234.38;;;30.96;29.76
50702;BME280;36670;50.094;8.496;2022-08-21T11:29:46;100229.41;;;30.86;30.03
50702;BME280;36670;50.094;8.496;2022-08-21T11:37:55;100228.97;;;30.80;29.73
50702;BME280;36670;50.094;8.496;2022-08-21T11:43:02;100225.03;;;30.99;29.60
50702;BME280;36670;50.094;8.496;2022-08-21T11:45:32;100218.47;;;31.44;28.90
50702;BME280;36670;50.094;8.496;2022-08-21T11:50:53;100215.28;;;31.53;29.03
50702;BME280;36670;50.094;8.496;2022-08-21T11:53:36;100202.75;;;31.68;28.57
50702;BME280;36670;50.094;8.496;2022-08-21T11:56:12;100207.94;;;31.55;28.03
50702;BME280;36670;50.094;8.496;2022-08-21T11:58:48;100214.44;;;31.48;28.91
50702;BME280;36670;50.094;8.496;2022-08-21T12:01:19;100201.94;;;31.71;28.67
50702;BME280;36670;50.094;8.496;2022-08-21T12:03:56;100200.75;;;31.72;28.10
50702;BME280;36670;50.094;8.496;2022-08-21T12:06:31;100203.31;;;31.29;27.99
50702;BME280;36670;50.094;8.496;2022-08-21T12:09:00;100205.19;;;31.07;28.64
50702;BME280;36670;50.094;8.496;2022-08-21T12:11:26;100198.06;;;31.38;28.23
50702;BME280;36670;50.094;8.496;2022-08-21T12:16:36;100196.81;;;31.36;28.54
50702;BME280;36670;50.094;8.496;2022-08-21T12:19:14;100199.22;;;31.26;27.99
50702;BME280;36670;50.094;8.496;2022-08-21T12:24:45;100202.88;;;31.23;27.92
50702;BME280;36670;50.094;8.496;2022-08-21T12:29:47;100201.63;;;30.76;28.59
50702;BME280;36670;50.094;8.496;2022-08-21T12:34:56;100198.88;;;30.87;28.77
50702;BME280;36670;50.094;8.496;2022-08-21T12:37:42;100186.69;;;30.90;28.50
50702;BME280;36670;50.094;8.496;2022-08-21T12:42:46;100186.88;;;30.63;28.20
50702;BME280;36670;50.094;8.496;2022-08-21T12:45:17;100193.63;;;30.92;28.81
50702;BME280;36670;50.094;8.496;2022-08-21T12:47:48;100184.53;;;31.24;28.36
50702;BME280;36670;50.094;8.496;2022-08-21T12:50:29;100190.81;;;31.55;27.77
50702;BME280;36670;50.094;8.496;2022-08-21T12:53:04;100191.78;;;31.81;27.42
50702;BME280;36670;50.094;8.496;2022-08-21T12:55:32;100197.19;;;31.27;27.97
50702;BME280;36670;50.094;8.496;2022-08-21T12:57:59;100188.13;;;31.14;27.63
50702;BME280;36670;50.094;8.496;2022-08-21T13:00:26;100180.63;;;30.95;28.52
50702;BME280;36670;50.094;8.496;2022-08-21T13:02:53;100177.59;;;31.25;27.99
50702;BME280;36670;50.094;8.496;2022-08-21T13:05:39;100182.22;;;31.44;28.31
50702;BME280;36670;50.094;8.496;2022-08-21T13:08:06;100176.50;;;31.44;27.12
50702;BME280;36670;50.094;8.496;2022-08-21T13:10:34;100183.72;;;31.27;27.77
50702;BME280;36670;50.094;8.496;2022-08-21T13:13:05;100175.09;;;31.13;27.54
50702;BME280;36670;50.094;8.496;2022-08-21T13:15:34;100169.97;;;30.85;27.39
50702;BME280;36670;50.094;8.496;2022-08-21T13:18:02;100179.38;;;29.76;28.43
50702;BME280;36670;50.094;8.496;2022-08-21T13:20:35;100176.78;;;29.94;28.80
50702;BME280;36670;50.094;8.496;2022-08-21T13:23:06;100165.16;;;30.47;28.94
50702;BME280;36670;50.094;8.496;2022-08-21T13:25:40;100152.81;;;30.81;29.03
50702;BME280;36670;50.094;8.496;2022-08-21T13:28:09;100162.09;;;31.23;28.65
50702;BME280;36670;50.094;8.496;2022-08-21T13:30:52;100156.72;;;31.10;27.94
50702;BME280;36670;50.094;8.496;2022-08-21T13:33:20;100157.31;;;31.41;28.21
50702;BME280;36670;50.094;8.496;2022-08-21T13:38:25;100160.53;;;31.29;27.67
50702;BME280;36670;50.094;8.496;2022-08-21T13:40:55;100152.06;;;31.47;27.27
50702;BME280;36670;50.094;8.496;2022-08-21T13:43:26;100143.50;;;31.43;27.46
50702;BME280;36670;50.094;8.496;2022-08-21T13:45:55;100145.66;;;31.72;26.88
50702;BME280;36670;50.094;8.496;2022-08-21T13:48:23;100138.25;;;31.53;26.55
50702;BME280;36670;50.094;8.496;2022-08-21T13:50:50;100135.75;;;31.47;26.39
50702;BME280;36670;50.094;8.496;2022-08-21T13:55:56;100133.69;;;31.41;26.51
50702;BME280;36670;50.094;8.496;2022-08-21T14:00:53;100126.66;;;31.17;26.81
50702;BME280;36670;50.094;8.496;2022-08-21T14:03:34;100132.78;;;31.22;27.34
50702;BME280;36670;50.094;8.496;2022-08-21T14:06:11;100130.78;;;31.26;27.16
50702;BME280;36670;50.094;8.496;2022-08-21T14:08:38;100132.81;;;31.29;26.51
50702;BME280;36670;50.094;8.496;2022-08-21T14:11:10;100125.94;;;31.41;26.66